createdAt,value
2019-03-31T04:00:54.745Z,0.00
2019-03-31T04:01:54.913Z,0.00
2019-03-31T04:02:55.088Z,0.00
2019-03-31T04:03:55.261Z,0.00
2019-03-31T04:04:55.428Z,0.00
2019-03-31T04:05:55.597Z,0.00
2019-03-31T04:06:55.771Z,0.00
2019-03-31T04:07:55.950Z,0.00
2019-03-31T04:08:56.125Z,0.00
2019-03-31T04:09:56.282Z,0.00
2019-03-31T04:10:56.455Z,0.00
2019-03-31T04:11:56.623Z,0.00
2019-03-31T04:12:56.798Z,0.00
2019-03-31T04:13:56.985Z,0.00
2019-03-31T04:14:57.133Z,0.00
2019-03-31T04:15:57.311Z,0.00
2019-03-31T04:16:57.473Z,0.00
2019-03-31T04:17:57.642Z,0.00
2019-03-31T04:18:57.815Z,0.00
2019-03-31T04:19:57.987Z,0.00
2019-03-31T04:20:58.166Z,0.00
2019-03-31T04:21:58.335Z,0.00
2019-03-31T04:22:58.501Z,0.00
2019-03-31T04:23:58.672Z,0.00
2019-03-31T04:24:58.840Z,0.00
2019-03-31T04:25:59.013Z,0.00
2019-03-31T04:26:59.187Z,0.00
2019-03-31T04:27:59.359Z,0.00
2019-03-31T04:28:59.547Z,0.00
2019-03-31T04:29:59.694Z,4.00
2019-03-31T04:30:59.865Z,0.00
2019-03-31T04:32:00.036Z,4.00
2019-03-31T04:33:00.204Z,4.00
2019-03-31T04:34:00.377Z,4.00
2019-03-31T04:35:00.643Z,4.00
2019-03-31T04:36:00.749Z,8.00
2019-03-31T04:37:00.897Z,8.00
2019-03-31T04:38:01.067Z,8.00
2019-03-31T04:39:01.268Z,8.00
2019-03-31T04:40:01.418Z,12.00
2019-03-31T04:41:01.571Z,12.00
2019-03-31T04:42:01.746Z,16.00
2019-03-31T04:43:01.920Z,20.00
2019-03-31T04:44:02.111Z,24.00
2019-03-31T04:45:02.263Z,28.00
2019-03-31T04:46:02.437Z,32.00
2019-03-31T04:47:02.605Z,40.00
2019-03-31T04:48:02.774Z,48.00
2019-03-31T04:49:02.942Z,52.00
2019-03-31T04:50:03.111Z,64.00
2019-03-31T04:51:03.284Z,72.00
2019-03-31T04:52:03.454Z,80.00
2019-03-31T04:53:03.622Z,96.00
2019-03-31T04:54:03.791Z,108.00
2019-03-31T04:55:03.976Z,120.00
2019-03-31T04:56:04.144Z,136.00
2019-03-31T04:57:04.718Z,152.00
2019-03-31T04:58:04.488Z,172.00
2019-03-31T04:59:04.659Z,192.00
2019-03-31T05:00:04.832Z,216.00
2019-03-31T05:01:05.001Z,240.00
2019-03-31T05:02:05.172Z,260.00
2019-03-31T05:03:05.341Z,288.00
2019-03-31T05:04:05.590Z,316.00
2019-03-31T05:05:05.685Z,340.00
2019-03-31T05:06:05.858Z,372.00
2019-03-31T05:07:06.028Z,404.00
2019-03-31T05:08:06.197Z,432.00
2019-03-31T05:09:06.369Z,468.00
2019-03-31T05:10:06.539Z,504.00
2019-03-31T05:11:06.704Z,536.00
2019-03-31T05:12:06.878Z,576.00
2019-03-31T05:13:07.045Z,612.00
2019-03-31T05:14:07.221Z,652.00
2019-03-31T05:15:07.394Z,692.00
2019-03-31T05:16:07.565Z,732.00
2019-03-31T05:17:07.735Z,768.00
2019-03-31T05:18:07.906Z,812.00
2019-03-31T05:19:08.076Z,856.00
2019-03-31T05:20:08.245Z,896.00
2019-03-31T05:21:08.413Z,940.00
2019-03-31T05:22:08.583Z,984.00
2019-03-31T05:23:08.752Z,1024.00
2019-03-31T05:24:08.929Z,1068.00
2019-03-31T05:25:09.094Z,1112.00
2019-03-31T05:26:09.265Z,1152.00
2019-03-31T05:27:09.439Z,1200.00
2019-03-31T05:28:09.612Z,1248.00
2019-03-31T05:29:09.785Z,1304.00
2019-03-31T05:30:09.954Z,1356.00
2019-03-31T05:31:10.121Z,1408.00
2019-03-31T05:32:10.298Z,1460.00
2019-03-31T05:33:10.464Z,1512.00
2019-03-31T05:34:18.911Z,1564.00
2019-03-31T05:35:10.803Z,1612.00
2019-03-31T05:36:10.975Z,1668.00
2019-03-31T05:37:11.145Z,1720.00
2019-03-31T05:38:11.315Z,1772.00
2019-03-31T05:39:11.487Z,1828.00
2019-03-31T05:40:11.656Z,1884.00
2019-03-31T05:41:11.825Z,1940.00
2019-03-31T05:42:11.994Z,1992.00
2019-03-31T05:43:12.164Z,2044.00
2019-03-31T05:44:12.334Z,2092.00
2019-03-31T05:45:12.507Z,2144.00
2019-03-31T05:46:12.675Z,2196.00
2019-03-31T05:47:12.845Z,2240.00
2019-03-31T05:48:13.015Z,2296.00
2019-03-31T05:49:13.189Z,2348.00
2019-03-31T05:50:13.375Z,2400.00
2019-03-31T05:51:13.551Z,2452.00
2019-03-31T05:52:13.720Z,2504.00
2019-03-31T05:53:13.884Z,2560.00
2019-03-31T05:54:14.058Z,2620.00
2019-03-31T05:55:14.225Z,2676.00
2019-03-31T05:56:14.393Z,2740.00
2019-03-31T05:57:14.564Z,2796.00
2019-03-31T05:58:14.733Z,2852.00
2019-03-31T05:59:14.903Z,2912.00
2019-03-31T06:00:15.073Z,2964.00
2019-03-31T06:01:15.246Z,3016.00
2019-03-31T06:02:15.412Z,3068.00
2019-03-31T06:03:15.586Z,3116.00
2019-03-31T06:04:15.755Z,3172.00
2019-03-31T06:05:15.929Z,3228.00
2019-03-31T06:06:16.098Z,3288.00
2019-03-31T06:07:16.269Z,3348.00
2019-03-31T06:08:16.439Z,3416.00
2019-03-31T06:09:16.610Z,3480.00
2019-03-31T06:10:16.783Z,3548.00
2019-03-31T06:11:16.962Z,3612.00
2019-03-31T06:12:17.130Z,3664.00
2019-03-31T06:13:17.311Z,3720.00
2019-03-31T06:14:17.476Z,3772.00
2019-03-31T06:15:17.651Z,3828.00
2019-03-31T06:16:17.819Z,3880.00
2019-03-31T06:17:17.990Z,3944.00
2019-03-31T06:18:18.160Z,4004.00
2019-03-31T06:19:18.327Z,4064.00
2019-03-31T06:20:18.502Z,4128.00
2019-03-31T06:21:18.670Z,4188.00
2019-03-31T06:22:18.843Z,4228.00
2019-03-31T06:23:19.011Z,4304.00
2019-03-31T06:24:19.182Z,4348.00
2019-03-31T06:25:19.353Z,4408.00
2019-03-31T06:26:19.519Z,4460.00
2019-03-31T06:27:19.691Z,4524.00
2019-03-31T06:28:19.866Z,4576.00
2019-03-31T06:29:20.040Z,4652.00
2019-03-31T06:30:20.205Z,4712.00
2019-03-31T06:31:20.389Z,4792.00
2019-03-31T06:32:20.559Z,4868.00
2019-03-31T06:33:20.728Z,4948.00
2019-03-31T06:34:20.900Z,5016.00
2019-03-31T06:35:21.070Z,5100.00
2019-03-31T06:36:21.240Z,5148.00
2019-03-31T06:37:21.414Z,5180.00
2019-03-31T06:38:21.585Z,5252.00
2019-03-31T06:39:21.755Z,5308.00
2019-03-31T06:40:21.923Z,5356.00
2019-03-31T06:41:22.093Z,5352.00
2019-03-31T06:42:22.268Z,5284.00
2019-03-31T06:43:22.432Z,5364.00
2019-03-31T06:44:22.602Z,5464.00
2019-03-31T06:45:22.775Z,5564.00
2019-03-31T06:46:22.946Z,5620.00
2019-03-31T06:47:23.113Z,5528.00
2019-03-31T06:48:23.288Z,5468.00
2019-03-31T06:49:23.454Z,5568.00
2019-03-31T06:50:23.624Z,5632.00
2019-03-31T06:51:23.795Z,5736.00
2019-03-31T06:52:23.965Z,6060.00
2019-03-31T06:53:24.137Z,6208.00
2019-03-31T06:54:24.311Z,6356.00
2019-03-31T06:55:24.483Z,6504.00
2019-03-31T06:56:24.657Z,6672.00
2019-03-31T06:57:24.826Z,6824.00
2019-03-31T06:58:24.999Z,6936.00
2019-03-31T06:59:25.169Z,7052.00
2019-03-31T07:00:25.340Z,7132.00
2019-03-31T07:01:25.531Z,7260.00
2019-03-31T07:02:25.684Z,7432.00
2019-03-31T07:03:25.856Z,7684.00
2019-03-31T07:04:26.028Z,8048.00
2019-03-31T07:05:26.201Z,8556.00
2019-03-31T07:06:26.374Z,9088.00
2019-03-31T07:07:26.542Z,9424.00
2019-03-31T07:08:26.710Z,9408.00
2019-03-31T07:09:26.911Z,8952.00
2019-03-31T07:10:27.061Z,8152.00
2019-03-31T07:11:27.230Z,7756.00
2019-03-31T07:12:27.402Z,7620.00
2019-03-31T07:13:27.574Z,7572.00
2019-03-31T07:14:27.746Z,7460.00
2019-03-31T07:15:27.918Z,7304.00
2019-03-31T07:16:28.086Z,7136.00
2019-03-31T07:17:28.275Z,6952.00
2019-03-31T07:18:28.429Z,6748.00
2019-03-31T07:19:28.601Z,6676.00
2019-03-31T07:20:28.777Z,6616.00
2019-03-31T07:21:28.943Z,6744.00
2019-03-31T07:22:29.115Z,7000.00
2019-03-31T07:23:29.314Z,7360.00
2019-03-31T07:24:29.537Z,7788.00
2019-03-31T07:25:29.685Z,8332.00
2019-03-31T07:26:29.862Z,8852.00
2019-03-31T07:27:30.035Z,9344.00
2019-03-31T07:28:30.210Z,9756.00
2019-03-31T07:29:30.390Z,9912.00
2019-03-31T07:30:30.566Z,10044.00
2019-03-31T07:31:30.739Z,10020.00
2019-03-31T07:32:30.909Z,9900.00
2019-03-31T07:33:31.076Z,9724.00
2019-03-31T07:34:31.257Z,9540.00
2019-03-31T07:35:31.427Z,9592.00
2019-03-31T07:36:31.596Z,9632.00
2019-03-31T07:37:31.768Z,9860.00
2019-03-31T07:38:38.934Z,10036.00
2019-03-31T07:39:32.426Z,9936.00
2019-03-31T07:40:32.295Z,9724.00
2019-03-31T07:41:32.642Z,9792.00
2019-03-31T07:42:32.628Z,10200.00
2019-03-31T07:43:32.798Z,10984.00
2019-03-31T07:44:32.974Z,11740.00
2019-03-31T07:45:33.182Z,11944.00
2019-03-31T07:46:33.307Z,12164.00
2019-03-31T07:47:33.479Z,12204.00
2019-03-31T07:48:33.681Z,11848.00
2019-03-31T07:49:33.823Z,12140.00
2019-03-31T07:50:34.000Z,12240.00
2019-03-31T07:51:37.447Z,12096.00
2019-03-31T07:52:34.343Z,12176.00
2019-03-31T07:53:34.514Z,12560.00
2019-03-31T07:54:34.683Z,13040.00
2019-03-31T07:55:34.855Z,14164.00
2019-03-31T07:56:35.028Z,14524.00
2019-03-31T07:57:35.197Z,14548.00
2019-03-31T07:58:35.371Z,14232.00
2019-03-31T07:59:35.545Z,14836.00
2019-03-31T08:00:35.715Z,16352.00
2019-03-31T08:01:35.889Z,16544.00
2019-03-31T08:02:36.060Z,16640.00
2019-03-31T08:03:36.233Z,16608.00
2019-03-31T08:04:36.408Z,16160.00
2019-03-31T08:05:37.772Z,14992.00
2019-03-31T08:06:36.750Z,14532.00
2019-03-31T08:07:36.921Z,14080.00
2019-03-31T08:08:37.103Z,11784.00
2019-03-31T08:09:37.271Z,11484.00
2019-03-31T08:10:37.442Z,11660.00
2019-03-31T08:11:37.614Z,12108.00
2019-03-31T08:12:37.788Z,14472.00
2019-03-31T08:13:37.970Z,13412.00
2019-03-31T08:14:38.146Z,15744.00
2019-03-31T08:15:38.320Z,15808.00
2019-03-31T08:16:38.494Z,16032.00
2019-03-31T08:17:38.667Z,15248.00
2019-03-31T08:18:38.841Z,16768.00
2019-03-31T08:19:39.013Z,15268.00
2019-03-31T08:20:39.193Z,14244.00
2019-03-31T08:21:39.364Z,13504.00
2019-03-31T08:22:39.535Z,13456.00
2019-03-31T08:23:39.709Z,13908.00
2019-03-31T08:24:39.886Z,13940.00
2019-03-31T08:25:40.072Z,13788.00
2019-03-31T08:26:40.230Z,14180.00
2019-03-31T08:27:40.403Z,16416.00
2019-03-31T08:28:40.582Z,17408.00
2019-03-31T08:29:40.754Z,17888.00
2019-03-31T08:30:40.927Z,18304.00
2019-03-31T08:31:41.099Z,16640.00
2019-03-31T08:32:41.274Z,18176.00
2019-03-31T08:33:41.446Z,19456.00
2019-03-31T08:34:41.620Z,19424.00
2019-03-31T08:35:47.633Z,20480.00
2019-03-31T08:36:41.990Z,20064.00
2019-03-31T08:37:42.139Z,17920.00
2019-03-31T08:38:42.314Z,18720.00
2019-03-31T08:39:42.489Z,17760.00
2019-03-31T08:40:42.663Z,19552.00
2019-03-31T08:41:42.836Z,18592.00
2019-03-31T08:42:43.011Z,19136.00
2019-03-31T08:43:43.186Z,20192.00
2019-03-31T08:44:43.360Z,22272.00
2019-03-31T08:45:43.539Z,22080.00
2019-03-31T08:46:43.719Z,22752.00
2019-03-31T08:47:43.890Z,23456.00
2019-03-31T08:48:44.063Z,26272.00
2019-03-31T08:49:44.239Z,24128.00
2019-03-31T08:50:44.414Z,20704.00
2019-03-31T08:51:44.587Z,18944.00
2019-03-31T08:52:44.764Z,17952.00
2019-03-31T08:53:44.939Z,17536.00
2019-03-31T08:54:45.115Z,17536.00
2019-03-31T08:55:45.289Z,18080.00
2019-03-31T08:56:45.463Z,18816.00
2019-03-31T08:57:45.638Z,19008.00
2019-03-31T08:58:45.814Z,19168.00
2019-03-31T08:59:45.999Z,19744.00
2019-03-31T09:00:46.172Z,21056.00
2019-03-31T09:01:46.338Z,25984.00
2019-03-31T09:02:46.515Z,26304.00
2019-03-31T09:03:46.690Z,30240.00
2019-03-31T09:04:46.886Z,25376.00
2019-03-31T09:06:00.632Z,27200.00
2019-03-31T09:06:47.240Z,27296.00
2019-03-31T09:07:47.413Z,25344.00
2019-03-31T09:08:47.586Z,24288.00
2019-03-31T09:09:47.767Z,25280.00
2019-03-31T09:10:47.932Z,22304.00
2019-03-31T09:11:48.106Z,21504.00
2019-03-31T09:12:48.777Z,20992.00
2019-03-31T09:13:48.460Z,20128.00
2019-03-31T09:14:48.638Z,19136.00
2019-03-31T09:15:48.813Z,18112.00
2019-03-31T09:16:48.986Z,16864.00
2019-03-31T09:17:49.162Z,16192.00
2019-03-31T09:18:49.339Z,16000.00
2019-03-31T09:19:49.516Z,15968.00
2019-03-31T09:20:49.694Z,15448.00
2019-03-31T09:21:49.876Z,15128.00
2019-03-31T09:22:50.042Z,14952.00
2019-03-31T09:23:50.217Z,14984.00
2019-03-31T09:24:50.394Z,15272.00
2019-03-31T09:25:50.565Z,15780.00
2019-03-31T09:26:50.763Z,16480.00
2019-03-31T09:27:50.935Z,17024.00
2019-03-31T09:28:51.110Z,17600.00
2019-03-31T09:29:51.288Z,18304.00
2019-03-31T09:30:51.463Z,19584.00
2019-03-31T09:31:51.628Z,19872.00
2019-03-31T09:34:23.381Z,22176.00
2019-03-31T09:35:23.555Z,23552.00
2019-03-31T09:36:23.731Z,26176.00
2019-03-31T09:37:23.906Z,25216.00
2019-03-31T09:38:24.080Z,22752.00
2019-03-31T09:39:24.258Z,22880.00
2019-03-31T09:40:24.431Z,28864.00
2019-03-31T09:41:24.608Z,22880.00
2019-03-31T09:42:24.781Z,27520.00
2019-03-31T09:43:24.959Z,28416.00
2019-03-31T09:44:25.133Z,26112.00
2019-03-31T09:45:25.306Z,30784.00
2019-03-31T09:46:25.482Z,27712.00
2019-03-31T09:47:25.662Z,29248.00
2019-03-31T09:48:25.823Z,28096.00
2019-03-31T09:49:26.001Z,30720.00
2019-03-31T09:50:26.176Z,26272.00
2019-03-31T09:51:26.355Z,26720.00
2019-03-31T09:52:26.533Z,29632.00
2019-03-31T09:53:26.698Z,31392.00
2019-03-31T09:54:26.882Z,34656.00
2019-03-31T09:55:27.059Z,35744.00
2019-03-31T09:56:27.228Z,39392.00
2019-03-31T09:57:27.406Z,36832.00
2019-03-31T09:58:27.581Z,32224.00
2019-03-31T09:59:27.757Z,30016.00
2019-03-31T10:00:27.930Z,28800.00
2019-03-31T10:01:28.112Z,27424.00
2019-03-31T10:02:28.332Z,29440.00
2019-03-31T10:03:28.463Z,25888.00
2019-03-31T10:04:28.674Z,25280.00
2019-03-31T10:05:28.818Z,24160.00
2019-03-31T10:06:30.486Z,23872.00
2019-03-31T10:07:29.173Z,24352.00
2019-03-31T10:08:29.350Z,23232.00
2019-03-31T10:09:29.524Z,23392.00
2019-03-31T10:10:29.707Z,22752.00
2019-03-31T10:11:29.895Z,24192.00
2019-03-31T10:12:30.058Z,26688.00
2019-03-31T10:13:30.290Z,24736.00
2019-03-31T10:14:30.415Z,25536.00
2019-03-31T10:15:30.613Z,25216.00
2019-03-31T10:16:30.772Z,27648.00
2019-03-31T10:17:30.953Z,27808.00
2019-03-31T10:18:31.127Z,30304.00
2019-03-31T10:19:31.307Z,28992.00
2019-03-31T10:20:31.916Z,28608.00
2019-03-31T10:21:31.653Z,29088.00
2019-03-31T10:22:31.826Z,33568.00
2019-03-31T10:23:32.005Z,29440.00
2019-03-31T10:24:32.181Z,28128.00
2019-03-31T10:25:32.358Z,26688.00
2019-03-31T10:26:32.627Z,26368.00
2019-03-31T10:27:32.712Z,25440.00
2019-03-31T10:28:32.887Z,25408.00
2019-03-31T10:29:33.063Z,25600.00
2019-03-31T10:30:33.238Z,25216.00
2019-03-31T10:31:33.420Z,27168.00
2019-03-31T10:32:33.595Z,21216.00
2019-03-31T10:33:33.773Z,19136.00
2019-03-31T10:34:33.965Z,17952.00
2019-03-31T10:35:34.140Z,17344.00
2019-03-31T10:36:44.308Z,17152.00
2019-03-31T10:37:34.584Z,17120.00
2019-03-31T10:38:34.639Z,17472.00
2019-03-31T10:39:34.815Z,17920.00
2019-03-31T10:40:34.995Z,18112.00
2019-03-31T10:41:35.178Z,18304.00
2019-03-31T10:42:35.352Z,18400.00
2019-03-31T10:43:35.544Z,18912.00
2019-03-31T10:44:35.688Z,18304.00
2019-03-31T10:45:35.865Z,18272.00
2019-03-31T10:46:36.039Z,18080.00
2019-03-31T10:47:36.216Z,17696.00
2019-03-31T10:48:36.384Z,17472.00
2019-03-31T10:49:36.565Z,17856.00
2019-03-31T10:50:36.731Z,16864.00
2019-03-31T10:51:36.947Z,16672.00
2019-03-31T10:52:37.147Z,16288.00
2019-03-31T10:53:37.317Z,16416.00
2019-03-31T10:54:37.492Z,17088.00
2019-03-31T10:55:37.673Z,16896.00
2019-03-31T10:56:37.845Z,16896.00
2019-03-31T10:57:38.023Z,18848.00
2019-03-31T10:58:38.216Z,16320.00
2019-03-31T10:59:38.403Z,15968.00
2019-03-31T11:00:38.579Z,15552.00
2019-03-31T11:01:38.754Z,15360.00
2019-03-31T11:02:38.933Z,15368.00
2019-03-31T11:03:39.104Z,15612.00
2019-03-31T11:04:39.280Z,16352.00
2019-03-31T11:05:39.469Z,17248.00
2019-03-31T11:06:39.637Z,18752.00
2019-03-31T11:07:39.817Z,21472.00
2019-03-31T11:08:40.013Z,45280.00
2019-03-31T11:09:40.192Z,46592.00
2019-03-31T11:10:40.379Z,48384.00
2019-03-31T11:11:40.562Z,50976.00
2019-03-31T11:12:40.727Z,48384.00
2019-03-31T11:13:40.908Z,57728.00
2019-03-31T11:14:41.079Z,47104.00
2019-03-31T11:15:41.256Z,39968.00
2019-03-31T11:16:41.430Z,51904.00
2019-03-31T11:17:41.609Z,36096.00
2019-03-31T11:18:41.785Z,54784.00
2019-03-31T11:19:41.962Z,31104.00
2019-03-31T11:20:42.132Z,32352.00
2019-03-31T11:21:42.319Z,34784.00
2019-03-31T11:22:42.500Z,31936.00
2019-03-31T11:23:42.685Z,45664.00
2019-03-31T11:24:42.864Z,42496.00
2019-03-31T11:25:43.034Z,30144.00
2019-03-31T11:26:43.225Z,24384.00
2019-03-31T11:27:43.968Z,22400.00
2019-03-31T11:28:43.585Z,23584.00
2019-03-31T11:29:43.760Z,25952.00
2019-03-31T11:30:43.938Z,26112.00
2019-03-31T11:31:44.120Z,27712.00
2019-03-31T11:32:44.296Z,45696.00
2019-03-31T11:33:44.475Z,47232.00
2019-03-31T11:34:44.658Z,43712.00
2019-03-31T11:35:44.832Z,38368.00
2019-03-31T11:36:45.010Z,33504.00
2019-03-31T11:37:45.235Z,38720.00
2019-03-31T11:38:45.356Z,31904.00
2019-03-31T11:39:45.523Z,30304.00
2019-03-31T11:40:45.698Z,34976.00
2019-03-31T11:41:45.883Z,38368.00
2019-03-31T11:42:46.053Z,36864.00
2019-03-31T11:43:46.230Z,37440.00
2019-03-31T11:44:46.405Z,41664.00
2019-03-31T11:45:46.587Z,44640.00
2019-03-31T11:46:46.765Z,53312.00
2019-03-31T11:47:46.946Z,53536.00
2019-03-31T11:48:47.118Z,44576.00
2019-03-31T11:49:47.296Z,41376.00
2019-03-31T11:50:47.469Z,41632.00
2019-03-31T11:51:47.665Z,39680.00
2019-03-31T11:52:47.838Z,36960.00
2019-03-31T11:53:48.017Z,34656.00
2019-03-31T11:54:48.194Z,33536.00
2019-03-31T11:55:48.362Z,32320.00
2019-03-31T11:56:48.537Z,30560.00
2019-03-31T11:57:48.713Z,28992.00
2019-03-31T11:58:48.892Z,28128.00
2019-03-31T11:59:49.824Z,27840.00
2019-03-31T12:00:49.253Z,28256.00
2019-03-31T12:01:49.431Z,30336.00
2019-03-31T12:02:49.661Z,32736.00
2019-03-31T12:03:49.841Z,35296.00
2019-03-31T12:04:50.018Z,36288.00
2019-03-31T12:05:50.240Z,38528.00
2019-03-31T12:06:50.443Z,42400.00
2019-03-31T12:07:50.583Z,47552.00
2019-03-31T12:08:50.759Z,44000.00
2019-03-31T12:09:50.936Z,42880.00
2019-03-31T12:10:51.114Z,38336.00
2019-03-31T12:11:51.292Z,36288.00
2019-03-31T12:12:51.470Z,36128.00
2019-03-31T12:13:51.650Z,38848.00
2019-03-31T12:15:00.433Z,41280.00
2019-03-31T12:15:52.005Z,46784.00
2019-03-31T12:16:52.183Z,46912.00
2019-03-31T12:17:52.358Z,50752.00
2019-03-31T12:18:52.540Z,66400.00
2019-03-31T12:19:52.715Z,64928.00
2019-03-31T12:20:52.898Z,43040.00
2019-03-31T12:21:53.066Z,38432.00
2019-03-31T12:22:53.255Z,41056.00
2019-03-31T12:23:53.408Z,48224.00
2019-03-31T12:24:53.587Z,49568.00
2019-03-31T12:25:53.784Z,50752.00
2019-03-31T12:26:53.967Z,68448.00
2019-03-31T12:27:54.144Z,64736.00
2019-03-31T12:28:54.323Z,64256.00
2019-03-31T12:29:54.498Z,52992.00
2019-03-31T12:30:54.686Z,57952.00
2019-03-31T12:31:54.862Z,28544.00
2019-03-31T12:32:55.043Z,25312.00
2019-03-31T12:33:55.219Z,24640.00
2019-03-31T12:34:55.412Z,24416.00
2019-03-31T12:35:55.596Z,36320.00
2019-03-31T12:36:55.762Z,22912.00
2019-03-31T12:37:55.946Z,21888.00
2019-03-31T12:38:56.138Z,21440.00
2019-03-31T12:39:56.317Z,22176.00
2019-03-31T12:40:56.504Z,21280.00
2019-03-31T12:41:56.671Z,19264.00
2019-03-31T12:42:56.851Z,18752.00
2019-03-31T12:43:57.025Z,18272.00
2019-03-31T12:44:57.201Z,18656.00
2019-03-31T12:45:57.381Z,20544.00
2019-03-31T12:46:57.627Z,25952.00
2019-03-31T12:48:00.877Z,27680.00
2019-03-31T12:48:58.014Z,61216.00
2019-03-31T12:51:29.530Z,70432.00
2019-03-31T12:52:29.712Z,51328.00
2019-03-31T12:53:29.893Z,62368.00
2019-03-31T12:54:30.063Z,62688.00
2019-03-31T12:55:30.243Z,72128.00
2019-03-31T12:56:30.419Z,73184.00
2019-03-31T12:57:30.592Z,69600.00
2019-03-31T12:58:30.773Z,66624.00
2019-03-31T12:59:30.955Z,69184.00
2019-03-31T13:00:31.131Z,73952.00
2019-03-31T13:01:31.314Z,70848.00
2019-03-31T13:02:31.502Z,72768.00
2019-03-31T13:03:31.674Z,69408.00
2019-03-31T13:04:31.847Z,49344.00
2019-03-31T13:05:32.024Z,47776.00
2019-03-31T13:06:32.206Z,44160.00
2019-03-31T13:07:32.395Z,37312.00
2019-03-31T13:08:32.574Z,40288.00
2019-03-31T13:09:32.753Z,36992.00
2019-03-31T13:10:32.933Z,37312.00
2019-03-31T13:11:33.114Z,33472.00
2019-03-31T13:12:35.031Z,45632.00
2019-03-31T13:13:33.475Z,39904.00
2019-03-31T13:14:33.752Z,53216.00
2019-03-31T13:15:33.853Z,56096.00
2019-03-31T13:16:34.032Z,51296.00
2019-03-31T13:17:34.207Z,55296.00
2019-03-31T13:18:34.387Z,42944.00
2019-03-31T13:19:34.598Z,49312.00
2019-03-31T13:20:34.786Z,57440.00
2019-03-31T13:21:34.954Z,45152.00
2019-03-31T13:22:35.131Z,44736.00
2019-03-31T13:23:35.313Z,35840.00
2019-03-31T13:24:35.489Z,55232.00
2019-03-31T13:25:35.670Z,65984.00
2019-03-31T13:26:35.846Z,66144.00
2019-03-31T13:27:36.024Z,68416.00
2019-03-31T13:28:36.205Z,69888.00
2019-03-31T13:29:38.345Z,70368.00
2019-03-31T13:30:36.553Z,69216.00
2019-03-31T13:31:36.723Z,72096.00
2019-03-31T13:32:36.911Z,73472.00
2019-03-31T13:33:37.077Z,72288.00
2019-03-31T13:34:37.257Z,69312.00
2019-03-31T13:35:37.429Z,71776.00
2019-03-31T13:36:37.603Z,68320.00
2019-03-31T13:37:37.788Z,68448.00
2019-03-31T13:38:37.958Z,70432.00
2019-03-31T13:39:38.137Z,68160.00
2019-03-31T13:40:38.316Z,61408.00
2019-03-31T13:41:38.494Z,60352.00
2019-03-31T13:42:38.684Z,61024.00
2019-03-31T13:43:38.865Z,44864.00
2019-03-31T13:44:39.045Z,30752.00
2019-03-31T13:45:39.224Z,27072.00
2019-03-31T13:46:39.406Z,26080.00
2019-03-31T13:47:39.582Z,27936.00
2019-03-31T13:48:39.758Z,36544.00
2019-03-31T13:49:39.944Z,42272.00
2019-03-31T13:50:40.116Z,35552.00
2019-03-31T13:51:40.332Z,37024.00
2019-03-31T13:52:40.467Z,25696.00
2019-03-31T13:53:40.649Z,32576.00
2019-03-31T13:54:40.826Z,26304.00
2019-03-31T13:55:41.007Z,25536.00
2019-03-31T13:56:41.601Z,25760.00
2019-03-31T13:57:42.473Z,28448.00
2019-03-31T13:58:42.006Z,32640.00
2019-03-31T13:59:41.716Z,33376.00
2019-03-31T14:00:41.936Z,61888.00
2019-03-31T14:01:42.076Z,65184.00
2019-03-31T14:02:42.253Z,66880.00
2019-03-31T14:03:42.434Z,66880.00
2019-03-31T14:04:51.336Z,62048.00
2019-03-31T14:05:42.790Z,62656.00
2019-03-31T14:06:42.975Z,56608.00
2019-03-31T14:07:43.172Z,44992.00
2019-03-31T14:08:43.351Z,27552.00
2019-03-31T14:09:43.527Z,22976.00
2019-03-31T14:10:43.713Z,20320.00
2019-03-31T14:11:43.888Z,18720.00
2019-03-31T14:12:44.069Z,18432.00
2019-03-31T14:13:44.246Z,19232.00
2019-03-31T14:14:44.424Z,20896.00
2019-03-31T14:15:44.601Z,24224.00
2019-03-31T14:16:44.781Z,30368.00
2019-03-31T14:17:44.989Z,21280.00
2019-03-31T14:18:45.166Z,20928.00
2019-03-31T14:19:45.338Z,24864.00
2019-03-31T14:20:45.514Z,37952.00
2019-03-31T14:21:45.694Z,32768.00
2019-03-31T14:22:45.870Z,20288.00
2019-03-31T14:23:46.047Z,17632.00
2019-03-31T14:24:46.224Z,16320.00
2019-03-31T14:25:46.402Z,14996.00
2019-03-31T14:26:47.909Z,13644.00
2019-03-31T14:27:46.755Z,12388.00
2019-03-31T14:28:46.932Z,11700.00
2019-03-31T14:29:47.111Z,11628.00
2019-03-31T14:30:47.289Z,11688.00
2019-03-31T14:31:47.470Z,11712.00
2019-03-31T14:32:47.662Z,11540.00
2019-03-31T14:33:47.813Z,11476.00
2019-03-31T14:34:47.988Z,11568.00
2019-03-31T14:35:48.173Z,11712.00
2019-03-31T14:36:48.336Z,11880.00
2019-03-31T14:37:48.510Z,12092.00
2019-03-31T14:38:48.686Z,12216.00
2019-03-31T14:39:48.862Z,12224.00
2019-03-31T14:40:49.039Z,12020.00
2019-03-31T14:41:49.212Z,11868.00
2019-03-31T14:42:49.384Z,11736.00
2019-03-31T14:43:49.553Z,11696.00
2019-03-31T14:44:49.737Z,11464.00
2019-03-31T14:45:49.908Z,11224.00
2019-03-31T14:46:50.083Z,10812.00
2019-03-31T14:47:50.258Z,10416.00
2019-03-31T14:48:50.433Z,10384.00
2019-03-31T14:49:50.617Z,10404.00
2019-03-31T14:50:50.783Z,10236.00
2019-03-31T14:51:50.959Z,9960.00
2019-03-31T14:52:51.138Z,9776.00
2019-03-31T14:53:51.312Z,9724.00
2019-03-31T14:54:51.494Z,9660.00
2019-03-31T14:55:51.658Z,9516.00
2019-03-31T14:56:51.835Z,9276.00
2019-03-31T14:57:52.021Z,8980.00
2019-03-31T14:58:52.198Z,8712.00
2019-03-31T14:59:52.394Z,8508.00
2019-03-31T15:00:52.549Z,8376.00
2019-03-31T15:01:52.724Z,8288.00
2019-03-31T15:02:52.898Z,8240.00
2019-03-31T15:03:53.074Z,8184.00
2019-03-31T15:04:53.251Z,8076.00
2019-03-31T15:05:53.425Z,7956.00
2019-03-31T15:06:53.595Z,7868.00
2019-03-31T15:07:53.780Z,7872.00
2019-03-31T15:08:54.814Z,8060.00
2019-03-31T15:09:54.123Z,8512.00
2019-03-31T15:10:54.297Z,9112.00
2019-03-31T15:11:54.485Z,9588.00
2019-03-31T15:12:54.663Z,9948.00
2019-03-31T15:13:54.833Z,10280.00
2019-03-31T15:14:55.008Z,10604.00
2019-03-31T15:15:55.214Z,10876.00
2019-03-31T15:16:55.392Z,11112.00
2019-03-31T15:17:55.599Z,11584.00
2019-03-31T15:18:55.745Z,13068.00
2019-03-31T15:19:55.921Z,19264.00
2019-03-31T15:20:56.097Z,14064.00
2019-03-31T15:21:56.271Z,13480.00
2019-03-31T15:22:56.448Z,12688.00
2019-03-31T15:23:56.623Z,12112.00
2019-03-31T15:24:56.812Z,12084.00
2019-03-31T15:25:56.968Z,11604.00
2019-03-31T15:26:57.240Z,11460.00
2019-03-31T15:27:57.320Z,10696.00
2019-03-31T15:28:57.498Z,10084.00
2019-03-31T15:29:57.673Z,9548.00
2019-03-31T15:30:57.852Z,9304.00
2019-03-31T15:31:58.027Z,9576.00
2019-03-31T15:32:58.223Z,10064.00
2019-03-31T15:33:58.400Z,10448.00
2019-03-31T15:34:58.572Z,10896.00
2019-03-31T15:35:58.747Z,10380.00
2019-03-31T15:36:58.926Z,9988.00
2019-03-31T15:37:59.115Z,9508.00
2019-03-31T15:39:08.686Z,8996.00
2019-03-31T15:39:59.453Z,8504.00
2019-03-31T15:40:59.632Z,8040.00
2019-03-31T15:41:59.808Z,7636.00
2019-03-31T15:42:59.980Z,7344.00
2019-03-31T15:44:00.171Z,7156.00
2019-03-31T15:45:00.418Z,7108.00
2019-03-31T15:46:00.528Z,7176.00
2019-03-31T15:47:00.704Z,7316.00
2019-03-31T15:48:00.861Z,7520.00
2019-03-31T15:49:01.033Z,8056.00
2019-03-31T15:50:01.209Z,8640.00
2019-03-31T15:51:01.382Z,8960.00
2019-03-31T15:52:01.572Z,11004.00
2019-03-31T15:53:01.755Z,12196.00
2019-03-31T15:54:01.982Z,10040.00
2019-03-31T15:55:02.056Z,10084.00
2019-03-31T15:56:02.228Z,11096.00
2019-03-31T15:57:02.406Z,10680.00
2019-03-31T15:58:05.177Z,10212.00
2019-03-31T15:59:02.750Z,9792.00
2019-03-31T16:00:02.927Z,9296.00
2019-03-31T16:01:03.100Z,9004.00
2019-03-31T16:02:03.270Z,9040.00
2019-03-31T16:03:03.445Z,9512.00